Time;durP1;ratioP1;P1;durP2;ratioP2;P2;SDS_P1;SDS_P2;PMS_P1;PMS_P2;Temp;Humidity;BMP_temperature;BMP_pressure;BME280_temperature;BME280_humidity;BME280_pressure;Samples;Min_cycle;Max_cycle;Signal;HPM_P1;HPM_P2
2023/09/04 00:00:26;;;;;;;4.20;1.90;;;;;;;25.34;46.29;100476.90;107865;1289;21992;-59
2023/09/04 00:02:52;;;;;;;4.80;2.30;;;;;;;25.32;46.28;100476.89;107920;1289;21990;-71
2023/09/04 00:05:18;;;;;;;3.80;2.10;;;;;;;25.31;46.48;100476.95;107975;1288;21990;-59
2023/09/04 00:07:46;;;;;;;4.30;2.20;;;;;;;25.30;46.65;100469.09;108007;1287;21989;-59
2023/09/04 00:10:12;;;;;;;4.80;2.30;;;;;;;25.31;46.85;100466.91;107891;1283;22005;-61
2023/09/04 00:12:38;;;;;;;2.80;1.90;;;;;;;25.32;47.01;100463.37;108030;1283;22002;-59
2023/09/04 00:15:05;;;;;;;4.40;2.10;;;;;;;25.33;47.17;100461.20;108002;1288;21991;-60
2023/09/04 00:17:31;;;;;;;3.50;2.40;;;;;;;25.32;47.11;100463.93;108024;1286;22256;-59
2023/09/04 00:19:56;;;;;;;5.40;2.40;;;;;;;25.32;47.46;100465.38;108043;1283;21996;-67
2023/09/04 00:22:22;;;;;;;5.60;2.20;;;;;;;25.30;47.61;100468.23;108054;1286;22010;-59
2023/09/04 00:24:48;;;;;;;4.10;2.40;;;;;;;25.30;47.67;100466.98;108111;1283;21990;-61
2023/09/04 00:27:13;;;;;;;3.50;2.30;;;;;;;25.31;47.80;100461.85;107862;1283;21992;-60
2023/09/04 00:29:39;;;;;;;4.10;2.30;;;;;;;25.34;48.17;100461.30;107899;1289;22001;-59
2023/09/04 00:32:06;;;;;;;6.30;2.30;;;;;;;25.35;48.22;100462.48;107906;1279;22012;-59
2023/09/04 00:34:32;;;;;;;4.10;2.50;;;;;;;25.34;48.50;100464.48;107946;1282;22062;-61
2023/09/04 00:36:58;;;;;;;4.50;2.10;;;;;;;25.34;48.49;100463.04;107904;1280;21991;-68
2023/09/04 00:39:23;;;;;;;5.10;2.60;;;;;;;25.36;48.53;100460.41;107896;1289;22304;-59
2023/09/04 00:41:49;;;;;;;5.10;2.60;;;;;;;25.37;49.00;100458.02;107966;1283;22009;-60
2023/09/04 00:44:14;;;;;;;5.20;2.30;;;;;;;25.36;48.91;100454.64;108020;1283;21998;-59
2023/09/04 00:46:40;;;;;;;4.50;2.70;;;;;;;25.36;49.00;100454.63;108023;1287;21998;-60
2023/09/04 00:49:06;;;;;;;4.40;2.40;;;;;;;25.37;48.92;100454.93;107920;1279;21996;-72
2023/09/04 00:51:31;;;;;;;4.30;2.80;;;;;;;25.40;49.16;100457.09;107854;1286;21992;-59
2023/09/04 00:53:57;;;;;;;5.00;2.40;;;;;;;25.40;49.09;100455.29;107719;1289;22003;-71
2023/09/04 00:56:23;;;;;;;5.90;2.80;;;;;;;25.40;49.05;100453.64;107697;1289;22003;-60
2023/09/04 00:58:48;;;;;;;4.30;2.30;;;;;;;25.44;49.10;100454.66;107710;1286;22051;-59
2023/09/04 01:01:14;;;;;;;4.90;2.60;;;;;;;25.49;48.95;100453.43;107869;1288;21980;-59
2023/09/04 01:03:40;;;;;;;4.40;2.70;;;;;;;25.53;49.14;100452.95;107701;1286;21999;-71
2023/09/04 01:06:05;;;;;;;5.70;3.40;;;;;;;25.56;48.88;100452.00;108019;1284;21996;-70
2023/09/04 01:08:31;;;;;;;4.80;2.60;;;;;;;25.57;49.12;100452.43;108007;1288;22006;-60
2023/09/04 01:11:06;;;;;;;3.40;2.40;;;;;;;25.57;49.39;100455.67;107888;1289;21998;-59
2023/09/04 01:13:40;;;;;;;5.60;2.10;;;;;;;25.56;49.35;100455.22;107937;1289;23656;-71
2023/09/04 01:16:06;;;;;;;4.90;2.60;;;;;;;25.56;49.45;100455.95;107690;1284;21999;-71
2023/09/04 01:18:34;;;;;;;8.00;2.90;;;;;;;25.55;49.72;100456.00;107685;1287;23636;-59
2023/09/04 01:21:04;;;;;;;6.50;2.90;;;;;;;25.55;49.51;100456.53;108078;1286;21995;-71
2023/09/04 01:23:30;;;;;;;6.20;2.80;;;;;;;25.55;49.78;100456.36;108027;1288;22049;-71
2023/09/04 01:26:13;;;;;;;5.90;3.10;;;;;;;25.54;49.56;100456.60;108030;1286;22256;-71
2023/09/04 01:29:20;;;;;;;5.80;2.60;;;;;;;25.56;49.43;100458.45;107973;1280;22027;-58
2023/09/04 01:32:28;;;;;;;5.10;3.10;;;;;;;25.59;49.55;100459.67;107914;1285;21989;-71
2023/09/04 01:34:53;;;;;;;5.10;3.10;;;;;;;25.61;49.54;100454.83;107708;1289;21994;-59
2023/09/04 01:37:19;;;;;;;5.50;2.60;;;;;;;25.61;49.35;100452.66;107848;1289;22008;-70
2023/09/04 01:39:45;;;;;;;4.80;2.50;;;;;;;25.61;49.35;100450.30;107656;1288;23703;-59
2023/09/04 01:42:10;;;;;;;5.80;2.60;;;;;;;25.62;49.34;100450.58;107791;1287;21986;-71
2023/09/04 01:44:36;;;;;;;6.70;2.80;;;;;;;25.64;49.23;100443.98;107978;1280;21997;-59
2023/09/04 01:47:02;;;;;;;8.50;3.40;;;;;;;25.67;49.32;100440.03;108019;1288;21989;-59
2023/09/04 01:49:27;;;;;;;5.90;3.20;;;;;;;25.69;49.19;100437.34;107848;1282;21995;-59
2023/09/04 01:51:53;;;;;;;6.00;3.00;;;;;;;25.72;49.17;100435.89;107875;1289;22005;-59
2023/09/04 01:54:19;;;;;;;6.20;3.20;;;;;;;25.74;49.25;100435.04;107903;1282;21990;-59
2023/09/04 01:56:45;;;;;;;4.60;2.70;;;;;;;25.75;49.16;100437.10;107869;1289;21992;-59
2023/09/04 01:59:10;;;;;;;4.70;2.70;;;;;;;25.77;49.06;100431.77;107960;1288;22002;-70
2023/09/04 02:01:36;;;;;;;4.90;3.00;;;;;;;25.77;49.09;100429.58;108009;1288;21989;-70
2023/09/04 02:04:01;;;;;;;5.80;2.80;;;;;;;25.78;49.17;100428.61;108029;1288;21987;-70
2023/09/04 02:06:28;;;;;;;4.80;2.80;;;;;;;25.78;49.10;100428.05;107977;1288;22037;-70
2023/09/04 02:08:54;;;;;;;5.40;2.70;;;;;;;25.78;49.06;100428.57;107895;1286;21990;-69
2023/09/04 02:11:19;;;;;;;6.30;2.80;;;;;;;25.79;49.02;100428.69;107872;1286;23657;-69
2023/09/04 02:13:45;;;;;;;6.10;3.20;;;;;;;25.81;48.95;100429.67;107867;1283;21997;-70
2023/09/04 02:16:14;;;;;;;3.80;2.60;;;;;;;25.80;48.94;100427.17;107853;1283;21999;-70
2023/09/04 02:18:40;;;;;;;5.00;3.00;;;;;;;25.81;48.81;100426.61;107960;1286;21990;-59
2023/09/04 02:21:06;;;;;;;4.60;2.90;;;;;;;25.81;48.82;100427.30;107975;1282;22474;-68
2023/09/04 02:23:31;;;;;;;5.60;3.00;;;;;;;25.82;48.91;100424.90;108020;1286;22026;-60
2023/09/04 02:25:57;;;;;;;4.40;2.90;;;;;;;25.81;48.71;100420.27;107949;1283;21964;-60
2023/09/04 02:28:22;;;;;;;6.50;3.00;;;;;;;25.82;48.71;100423.27;107977;1282;21999;-59
2023/09/04 02:30:48;;;;;;;5.80;2.90;;;;;;;25.81;48.71;100424.21;107929;1283;21992;-70
2023/09/04 02:33:14;;;;;;;5.20;2.90;;;;;;;25.80;48.59;100424.48;107941;1288;21991;-70
2023/09/04 02:35:39;;;;;;;5.50;3.00;;;;;;;25.80;48.61;100426.66;107820;1283;213388;-70
2023/09/04 02:38:05;;;;;;;6.80;3.20;;;;;;;25.80;48.59;100425.59;108055;1285;21999;-72
2023/09/04 02:40:30;;;;;;;5.20;2.90;;;;;;;25.80;48.33;100426.15;108018;1286;21992;-72
2023/09/04 02:42:56;;;;;;;5.00;2.90;;;;;;;25.81;48.19;100426.23;108054;1286;21986;-72
2023/09/04 02:45:22;;;;;;;6.90;3.60;;;;;;;25.82;48.08;100425.23;107966;1283;22020;-71
2023/09/04 02:47:47;;;;;;;5.10;3.10;;;;;;;25.83;48.09;100424.21;107975;1285;22027;-63
2023/09/04 02:50:13;;;;;;;7.70;3.70;;;;;;;25.85;48.09;100425.71;108002;1283;21990;-60
2023/09/04 02:52:38;;;;;;;8.30;3.20;;;;;;;25.85;48.05;100423.76;108001;1282;21989;-60
2023/09/04 02:55:04;;;;;;;5.50;3.10;;;;;;;25.85;47.82;100420.00;108039;1286;21995;-58
2023/09/04 02:57:31;;;;;;;5.30;3.20;;;;;;;25.84;47.84;100420.90;107904;1279;22004;-70
2023/09/04 02:59:59;;;;;;;6.40;3.10;;;;;;;25.86;47.72;100420.67;107980;1286;22459;-70
2023/09/04 03:02:25;;;;;;;5.30;3.00;;;;;;;25.87;47.74;100421.27;107974;1288;22065;-58
2023/09/04 03:04:54;;;;;;;5.20;2.80;;;;;;;25.89;47.74;100422.96;107956;1286;22093;-59
2023/09/04 03:07:21;;;;;;;7.60;3.80;;;;;;;25.90;47.59;100425.41;108029;1283;22266;-59
2023/09/04 03:09:47;;;;;;;5.10;3.10;;;;;;;25.91;47.46;100428.02;108062;1286;21994;-69
2023/09/04 03:12:13;;;;;;;6.80;3.40;;;;;;;25.93;47.44;100425.32;107746;1286;21995;-59
2023/09/04 03:14:39;;;;;;;4.80;3.00;;;;;;;25.95;47.37;100426.61;107969;1288;21994;-59
2023/09/04 03:17:05;;;;;;;6.30;3.10;;;;;;;25.97;47.30;100426.30;107931;1279;22083;-72
2023/09/04 03:19:30;;;;;;;5.70;3.00;;;;;;;25.98;47.23;100428.31;108105;1286;22014;-70
2023/09/04 03:21:57;;;;;;;6.20;3.20;;;;;;;26.00;47.18;100423.20;107983;1283;21999;-59
2023/09/04 03:24:23;;;;;;;6.10;3.40;;;;;;;26.02;47.27;100424.12;108111;1287;21987;-71
2023/09/04 03:26:50;;;;;;;7.40;3.30;;;;;;;26.04;47.18;100425.23;108163;1283;21996;-61
2023/09/04 03:29:15;;;;;;;5.80;3.20;;;;;;;26.04;47.04;100422.67;108071;1284;22004;-72
2023/09/04 03:31:41;;;;;;;8.60;3.80;;;;;;;26.04;46.85;100422.51;108004;1287;21995;-71
2023/09/04 03:34:07;;;;;;;7.70;3.50;;;;;;;26.04;46.87;100429.94;108025;1283;22025;-60
2023/09/04 03:36:33;;;;;;;5.30;3.30;;;;;;;26.02;46.78;100430.56;107967;1288;21995;-72
2023/09/04 03:38:58;;;;;;;7.40;4.00;;;;;;;26.01;46.74;100436.25;107984;1288;23628;-61
2023/09/04 03:41:25;;;;;;;9.40;3.90;;;;;;;26.01;46.80;100436.98;108112;1283;21998;-72
2023/09/04 03:43:50;;;;;;;6.80;3.80;;;;;;;26.01;46.75;100439.83;108161;1283;21987;-60
2023/09/04 03:46:16;;;;;;;5.90;3.20;;;;;;;26.02;46.87;100445.19;108141;1284;21992;-61
2023/09/04 03:48:41;;;;;;;7.60;3.60;;;;;;;26.03;46.77;100450.30;108004;1283;23998;-59
2023/09/04 03:51:07;;;;;;;9.30;3.60;;;;;;;26.03;46.76;100445.94;107974;1288;22004;-70
2023/09/04 03:53:33;;;;;;;15.00;3.30;;;;;;;26.05;46.76;100443.83;107891;1286;22104;-71
2023/09/04 03:56:05;;;;;;;13.60;3.70;;;;;;;26.12;46.85;100445.09;108002;1288;21987;-71
2023/09/04 03:58:34;;;;;;;11.00;3.80;;;;;;;26.15;46.59;100444.20;107986;1286;21989;-71
2023/09/04 04:00:59;;;;;;;11.00;3.60;;;;;;;26.15;46.48;100441.85;107765;1289;21992;-72
2023/09/04 04:03:25;;;;;;;11.70;4.10;;;;;;;26.14;46.39;100436.50;107964;1288;21987;-72
2023/09/04 04:05:50;;;;;;;7.40;3.60;;;;;;;26.13;46.31;100434.59;107912;1283;21999;-72
2023/09/04 04:08:16;;;;;;;10.30;4.10;;;;;;;26.13;46.03;100438.02;107828;1279;23647;-60
2023/09/04 04:10:44;;;;;;;7.00;3.60;;;;;;;26.11;45.81;100441.38;107953;1279;21991;-72
2023/09/04 04:13:09;;;;;;;7.30;3.50;;;;;;;26.11;45.58;100445.52;107859;1289;22003;-71
2023/09/04 04:15:38;;;;;;;8.50;3.70;;;;;;;26.11;45.38;100445.69;107994;1286;22002;-71
2023/09/04 04:18:04;;;;;;;8.20;3.70;;;;;;;26.12;45.27;100448.14;107988;1284;22001;-72
2023/09/04 04:20:30;;;;;;;11.30;3.80;;;;;;;26.13;45.19;100445.90;107924;1287;22034;-72
2023/09/04 04:22:57;;;;;;;8.20;3.90;;;;;;;26.16;45.17;100448.98;107859;1283;21992;-60
2023/09/04 04:25:23;;;;;;;7.00;3.40;;;;;;;26.18;44.90;100450.44;107953;1283;22013;-61
2023/09/04 04:27:49;;;;;;;9.30;3.70;;;;;;;26.20;44.62;100451.70;108007;1288;23746;-59
2023/09/04 04:30:15;;;;;;;5.30;3.30;;;;;;;26.21;44.36;100454.16;108110;1286;21988;-70
2023/09/04 04:32:41;;;;;;;6.20;3.50;;;;;;;26.23;44.35;100457.08;108117;1283;24329;-58
2023/09/04 04:35:07;;;;;;;6.10;3.60;;;;;;;26.24;44.11;100460.38;107999;1288;22004;-58
2023/09/04 04:37:33;;;;;;;8.80;3.20;;;;;;;26.25;43.87;100463.23;107962;1288;22002;-59
2023/09/04 04:40:00;;;;;;;12.90;3.80;;;;;;;26.26;43.85;100466.91;107986;1283;21988;-59
2023/09/04 04:42:26;;;;;;;9.60;3.60;;;;;;;26.30;43.77;100472.39;107965;1288;22000;-72
2023/09/04 04:44:54;;;;;;;5.40;3.20;;;;;;;26.28;43.58;100473.70;107961;1288;22037;-71
2023/09/04 04:47:20;;;;;;;7.80;3.40;;;;;;;26.28;43.70;100475.19;108023;1283;23631;-58
2023/09/04 04:49:45;;;;;;;9.80;3.80;;;;;;;26.29;43.74;100472.93;107977;1280;21990;-70
2023/09/04 04:52:11;;;;;;;8.20;3.90;;;;;;;26.31;43.68;100472.81;107914;1288;23639;-69
2023/09/04 04:54:37;;;;;;;7.10;3.40;;;;;;;26.32;43.59;100473.79;107939;1289;21959;-70
2023/09/04 04:57:02;;;;;;;10.50;3.60;;;;;;;26.35;43.35;100475.42;107809;1289;22031;-59
2023/09/04 04:59:29;;;;;;;9.50;3.90;;;;;;;26.36;43.24;100476.75;107824;1288;22002;-72
2023/09/04 05:01:56;;;;;;;7.40;3.30;;;;;;;26.40;43.18;100475.52;108006;1288;21992;-60
2023/09/04 05:04:22;;;;;;;5.80;3.40;;;;;;;26.45;43.02;100479.15;107884;1288;22449;-70
2023/09/04 05:06:47;;;;;;;4.90;3.30;;;;;;;26.44;43.04;100477.41;108017;1283;22037;-71
2023/09/04 05:09:13;;;;;;;6.70;3.90;;;;;;;26.48;43.01;100478.20;107844;1285;22770;-70
2023/09/04 05:11:39;;;;;;;6.70;3.70;;;;;;;26.51;42.80;100480.58;107980;1283;21990;-59
2023/09/04 05:14:04;;;;;;;7.20;3.70;;;;;;;26.54;42.68;100482.17;107991;1283;22007;-70
2023/09/04 05:16:30;;;;;;;8.70;3.80;;;;;;;26.55;42.68;100483.68;107967;1286;21994;-59
2023/09/04 05:18:56;;;;;;;9.80;3.60;;;;;;;26.56;42.51;100487.75;107970;1286;22456;-60
2023/09/04 05:21:21;;;;;;;11.40;4.00;;;;;;;26.58;42.43;100487.81;108040;1283;22146;-59
2023/09/04 05:23:50;;;;;;;8.80;3.70;;;;;;;26.61;42.51;100491.20;108009;1288;22047;-71
2023/09/04 05:26:15;;;;;;;10.80;3.80;;;;;;;26.65;42.44;100496.45;107873;1283;23650;-71
2023/09/04 05:28:41;;;;;;;5.10;3.90;;;;;;;26.70;42.50;100496.98;107725;1288;21992;-71
2023/09/04 05:31:07;;;;;;;8.10;3.70;;;;;;;26.75;42.40;100498.02;108063;1286;21993;-72
2023/09/04 05:33:32;;;;;;;12.70;3.70;;;;;;;26.80;42.26;100501.62;108165;1281;23052;-70
2023/09/04 05:35:58;;;;;;;5.50;3.70;;;;;;;26.84;42.00;100503.27;108059;1287;22001;-63
2023/09/04 05:38:23;;;;;;;7.90;3.70;;;;;;;26.86;41.71;100499.70;107999;1283;22002;-70
2023/09/04 05:40:54;;;;;;;7.60;3.70;;;;;;;26.88;41.58;100499.05;108001;1286;22004;-61
2023/09/04 05:43:20;;;;;;;8.00;3.70;;;;;;;26.93;41.32;100499.72;108036;1279;21997;-60
2023/09/04 05:45:45;;;;;;;9.10;4.30;;;;;;;26.96;41.35;100501.21;108002;1288;22000;-71
2023/09/04 05:48:11;;;;;;;10.40;4.50;;;;;;;26.99;41.11;100501.69;108097;1282;22162;-70
2023/09/04 05:50:36;;;;;;;10.50;4.60;;;;;;;27.01;40.88;100503.92;108122;1287;23721;-71
2023/09/04 05:53:02;;;;;;;10.80;4.50;;;;;;;27.01;40.58;100509.32;108145;1283;21996;-59
2023/09/04 05:55:28;;;;;;;8.40;4.60;;;;;;;27.01;40.48;100508.39;108123;1282;22462;-59
2023/09/04 05:57:54;;;;;;;7.90;4.30;;;;;;;27.03;40.30;100507.38;108129;1287;21987;-69
2023/09/04 06:00:21;;;;;;;14.40;4.60;;;;;;;27.06;40.69;100512.71;108122;1283;24328;-58
2023/09/04 06:02:47;;;;;;;10.50;5.20;;;;;;;27.17;40.73;100513.99;108071;1281;21992;-58
2023/09/04 06:05:13;;;;;;;10.60;5.20;;;;;;;27.27;40.25;100517.16;107971;1283;21991;-70
2023/09/04 06:07:39;;;;;;;13.50;5.10;;;;;;;27.32;39.91;100518.59;108018;1286;23713;-57
2023/09/04 06:10:05;;;;;;;11.00;4.90;;;;;;;27.35;39.91;100518.17;107881;1279;21974;-57
2023/09/04 06:12:31;;;;;;;6.50;4.20;;;;;;;27.38;39.73;100523.13;107942;1288;21982;-69
2023/09/04 06:14:57;;;;;;;6.40;4.30;;;;;;;27.41;39.64;100522.67;107904;1283;21998;-69
2023/09/04 06:17:22;;;;;;;13.40;4.80;;;;;;;27.44;39.65;100525.14;107834;1283;22001;-70
2023/09/04 06:19:48;;;;;;;13.10;4.00;;;;;;;27.48;39.54;100529.00;107890;1283;23533;-57
2023/09/04 06:22:14;;;;;;;10.90;5.40;;;;;;;27.53;39.50;100528.80;107793;1288;22004;-68
2023/09/04 06:24:42;;;;;;;7.20;4.20;;;;;;;27.58;39.24;100529.83;107972;1288;22000;-68
2023/09/04 06:27:08;;;;;;;9.50;3.90;;;;;;;27.63;39.14;100530.32;107855;1289;23696;-67
2023/09/04 06:29:34;;;;;;;9.80;4.20;;;;;;;27.67;39.10;100532.71;107813;1286;22030;-58
2023/09/04 06:31:59;;;;;;;7.70;4.20;;;;;;;27.72;38.92;100528.33;107922;1283;22245;-70
2023/09/04 06:34:25;;;;;;;10.70;3.90;;;;;;;27.79;38.70;100530.31;107836;1283;22002;-69
2023/09/04 06:36:50;;;;;;;9.00;4.40;;;;;;;27.84;38.59;100532.04;107895;1283;22001;-58
2023/09/04 06:39:16;;;;;;;7.60;3.50;;;;;;;27.89;38.72;100536.84;107896;1283;22034;-59
2023/09/04 06:41:41;;;;;;;7.40;3.70;;;;;;;27.96;38.55;100536.05;107786;1289;21997;-58
2023/09/04 06:44:07;;;;;;;8.00;4.00;;;;;;;27.99;38.31;100537.23;107856;1279;21984;-69
2023/09/04 06:46:32;;;;;;;7.70;4.00;;;;;;;28.11;38.36;100541.32;107872;1283;22270;-58
2023/09/04 06:48:58;;;;;;;6.60;3.80;;;;;;;28.18;38.21;100538.79;107962;1287;22117;-68
2023/09/04 06:51:24;;;;;;;7.60;3.70;;;;;;;28.23;38.03;100537.17;107927;1283;21996;-69
2023/09/04 06:53:50;;;;;;;8.00;3.80;;;;;;;28.26;38.03;100534.52;109138;1286;21996;-61
2023/09/04 06:56:15;;;;;;;6.10;3.60;;;;;;;28.29;37.80;100536.23;107909;1284;21994;-59
2023/09/04 06:58:41;;;;;;;7.30;3.90;;;;;;;28.33;37.65;100536.23;107978;1283;21988;-59
2023/09/04 07:01:06;;;;;;;10.00;6.10;;;;;;;28.40;37.83;100530.77;107922;1286;21986;-70
2023/09/04 07:03:33;;;;;;;13.00;8.00;;;;;;;28.49;37.81;100534.91;107895;1285;21987;-60
2023/09/04 07:05:58;;;;;;;13.00;6.90;;;;;;;28.41;37.89;100536.33;108034;1286;22313;-60
2023/09/04 07:08:24;;;;;;;6.90;4.90;;;;;;;28.45;38.07;100529.89;107912;1283;22027;-70
2023/09/04 07:10:51;;;;;;;10.50;4.70;;;;;;;28.54;37.97;100527.61;107839;1286;22005;-69
2023/09/04 07:13:17;;;;;;;6.90;3.90;;;;;;;28.68;38.25;100524.44;107992;1288;22261;-71
2023/09/04 07:15:44;;;;;;;6.00;3.60;;;;;;;28.86;37.86;100524.15;107837;1286;22000;-59
2023/09/04 07:18:10;;;;;;;8.10;3.80;;;;;;;29.15;37.37;100527.02;107849;1288;21994;-70
2023/09/04 07:20:35;;;;;;;5.00;3.20;;;;;;;29.40;37.31;100524.35;108106;1279;21986;-70
2023/09/04 07:23:01;;;;;;;10.50;3.40;;;;;;;29.67;37.25;100519.02;108191;1287;21992;-69
2023/09/04 07:25:26;;;;;;;7.20;3.00;;;;;;;29.91;36.75;100513.23;107986;1288;21996;-58
2023/09/04 07:27:52;;;;;;;7.80;3.20;;;;;;;30.11;36.31;100509.45;107967;1283;22040;-68
2023/09/04 07:30:18;;;;;;;6.10;3.20;;;;;;;30.34;36.40;100505.52;107942;1288;22049;-68
2023/09/04 07:32:43;;;;;;;10.80;3.50;;;;;;;30.64;36.23;100506.13;107989;1283;22000;-58
2023/09/04 07:35:09;;;;;;;6.50;3.30;;;;;;;30.95;35.96;100504.83;108023;1287;21998;-58
2023/09/04 07:37:35;;;;;;;7.20;3.10;;;;;;;31.26;35.87;100504.77;108170;1277;21996;-72
2023/09/04 07:40:02;;;;;;;9.80;3.20;;;;;;;31.56;35.43;100503.64;108115;1283;21988;-74
2023/09/04 07:42:29;;;;;;;10.00;2.70;;;;;;;31.83;35.28;100501.52;108215;1287;21977;-72
2023/09/04 07:44:54;;;;;;;9.70;3.20;;;;;;;32.09;35.18;100501.08;108125;1284;22169;-70
2023/09/04 07:47:20;;;;;;;8.30;3.60;;;;;;;32.37;34.62;100501.91;108171;1287;21991;-59
2023/09/04 07:49:46;;;;;;;9.00;2.90;;;;;;;32.54;34.44;100498.52;108061;1287;22460;-71
2023/09/04 07:52:12;;;;;;;11.20;3.20;;;;;;;32.77;34.36;100505.39;107881;1288;21977;-59
2023/09/04 07:54:37;;;;;;;10.10;2.90;;;;;;;33.03;33.87;100506.94;107957;1288;21980;-69
2023/09/04 07:57:04;;;;;;;7.40;3.20;;;;;;;33.18;33.84;100507.36;107849;1286;21971;-70
2023/09/04 07:59:30;;;;;;;7.40;3.40;;;;;;;33.36;33.60;100510.11;107841;1289;22110;-60
2023/09/04 08:01:56;;;;;;;8.30;3.10;;;;;;;33.67;33.55;100515.23;107945;1287;21993;-59
2023/09/04 08:04:21;;;;;;;4.70;2.70;;;;;;;33.87;33.15;100510.69;107830;1280;21995;-59
2023/09/04 08:06:47;;;;;;;6.60;2.80;;;;;;;33.99;32.90;100509.40;107858;1283;21997;-59
2023/09/04 08:09:13;;;;;;;4.40;2.50;;;;;;;34.15;32.89;100509.13;108003;1289;22021;-71
2023/09/04 08:11:39;;;;;;;4.30;2.50;;;;;;;34.33;32.70;100509.45;107949;1284;23728;-70
2023/09/04 08:14:05;;;;;;;11.30;2.60;;;;;;;34.63;33.03;100505.23;107763;1288;22004;-59
2023/09/04 08:16:30;;;;;;;4.90;2.50;;;;;;;35.11;32.67;100507.20;107866;1289;21997;-58
2023/09/04 08:18:56;;;;;;;6.20;2.70;;;;;;;35.46;32.18;100504.77;107955;1288;21993;-60
2023/09/04 08:21:21;;;;;;;7.70;2.80;;;;;;;35.69;31.76;100504.08;108132;1288;21990;-72
2023/09/04 08:23:47;;;;;;;4.00;2.60;;;;;;;35.80;31.36;100505.61;108100;1286;22174;-71
2023/09/04 08:26:13;;;;;;;4.80;2.40;;;;;;;35.77;31.12;100501.98;108095;1288;22009;-59
2023/09/04 08:28:40;;;;;;;6.30;2.60;;;;;;;35.81;31.35;100503.08;108147;1288;21997;-59
2023/09/04 08:31:05;;;;;;;5.60;2.80;;;;;;;35.90;31.34;100501.27;108181;1283;21992;-70
2023/09/04 08:33:31;;;;;;;4.10;2.40;;;;;;;36.11;31.12;100498.16;108041;1288;21981;-71
2023/09/04 08:35:57;;;;;;;4.30;3.00;;;;;;;36.25;30.77;100497.20;108002;1286;21994;-59
2023/09/04 08:38:22;;;;;;;6.30;2.80;;;;;;;36.31;30.93;100496.48;107950;1282;21988;-71
2023/09/04 08:40:48;;;;;;;8.30;2.70;;;;;;;36.42;30.47;100499.04;108009;1283;21987;-60
2023/09/04 08:43:17;;;;;;;6.30;3.30;;;;;;;36.54;29.95;100494.15;108118;1288;21999;-70
2023/09/04 08:45:43;;;;;;;5.30;2.90;;;;;;;36.63;30.58;100490.42;108032;1287;23718;-69
2023/09/04 08:48:09;;;;;;;6.30;3.00;;;;;;;36.90;30.34;100486.00;108047;1283;21987;-60
2023/09/04 08:50:37;;;;;;;5.00;2.70;;;;;;;37.08;29.92;100484.52;107668;1285;21995;-70
2023/09/04 08:53:04;;;;;;;7.60;3.50;;;;;;;37.14;29.39;100491.21;107922;1288;21992;-72
2023/09/04 08:55:31;;;;;;;3.90;2.70;;;;;;;37.05;29.08;100499.00;108020;1280;23718;-71
2023/09/04 08:57:56;;;;;;;5.30;2.50;;;;;;;36.94;28.84;100496.89;107989;1283;21993;-59
2023/09/04 09:00:22;;;;;;;4.70;2.80;;;;;;;36.86;29.04;100495.55;107687;1288;21999;-70
2023/09/04 09:02:48;;;;;;;3.60;2.70;;;;;;;36.90;29.07;100495.90;107793;1288;22695;-69
2023/09/04 09:05:16;;;;;;;4.10;2.40;;;;;;;37.09;28.95;100496.77;107835;1288;22024;-60
2023/09/04 09:07:41;;;;;;;5.30;2.50;;;;;;;37.36;29.30;100493.98;107851;1288;22000;-60
2023/09/04 09:10:09;;;;;;;7.80;2.40;;;;;;;37.75;28.74;100496.27;107842;1277;21994;-59
2023/09/04 09:12:35;;;;;;;4.30;3.00;;;;;;;37.96;28.43;100501.66;107844;1282;22015;-60
2023/09/04 09:15:02;;;;;;;5.70;2.60;;;;;;;38.09;28.55;100498.52;108023;1288;21989;-60
2023/09/04 09:17:28;;;;;;;3.40;2.40;;;;;;;38.27;27.78;100497.50;107925;1284;22667;-70
2023/09/04 09:19:54;;;;;;;3.10;2.50;;;;;;;38.38;27.85;100492.85;108070;1287;21986;-69
2023/09/04 09:22:21;;;;;;;4.30;2.40;;;;;;;38.52;27.57;100487.55;108115;1287;21991;-70
2023/09/04 09:24:56;;;;;;;3.80;2.80;;;;;;;38.70;27.28;100493.16;108049;1286;21999;-60
2023/09/04 09:27:24;;;;;;;4.90;2.50;;;;;;;38.68;26.78;100490.62;107997;1288;21988;-60
2023/09/04 09:29:50;;;;;;;4.00;2.40;;;;;;;38.59;27.18;100487.90;108054;1288;21990;-59
2023/09/04 09:32:16;;;;;;;8.70;2.50;;;;;;;38.54;26.80;100491.50;108014;1288;21989;-60
2023/09/04 09:34:50;;;;;;;5.30;2.70;;;;;;;38.39;26.42;100493.20;108047;1287;21997;-60
2023/09/04 09:37:20;;;;;;;4.10;2.80;;;;;;;38.23;26.69;100484.05;108163;1287;22014;-69
2023/09/04 09:39:46;;;;;;;3.70;2.40;;;;;;;38.29;26.94;100484.75;108117;1287;22024;-70
2023/09/04 09:42:12;;;;;;;3.40;2.20;;;;;;;38.52;27.36;100486.45;107907;1287;21983;-60
2023/09/04 09:44:37;;;;;;;5.90;2.30;;;;;;;38.80;26.82;100480.80;108165;1284;22453;-60
2023/09/04 09:47:06;;;;;;;6.90;2.40;;;;;;;38.88;26.43;100478.85;108106;1287;21996;-59
2023/09/04 09:49:34;;;;;;;5.80;2.30;;;;;;;38.83;25.93;100480.43;108239;1287;21988;-69
2023/09/04 09:51:59;;;;;;;3.70;2.20;;;;;;;38.74;25.91;100487.27;107825;1283;22031;-68
2023/09/04 09:54:35;;;;;;;5.90;2.50;;;;;;;38.90;26.54;100483.48;107897;1288;21997;-68
2023/09/04 09:57:07;;;;;;;3.60;2.40;;;;;;;39.30;26.28;100487.23;108044;1288;22146;-60
2023/09/04 09:59:34;;;;;;;4.30;2.30;;;;;;;39.68;25.89;100487.09;107929;1288;22003;-70
2023/09/04 10:01:59;;;;;;;3.80;2.60;;;;;;;39.93;25.54;100484.86;107963;1275;22038;-59
2023/09/04 10:04:25;;;;;;;5.20;2.30;;;;;;;40.07;24.98;100482.36;107744;1288;22055;-59
2023/09/04 10:06:52;;;;;;;4.90;1.90;;;;;;;39.93;25.25;100486.25;107876;1285;22046;-60
2023/09/04 10:09:21;;;;;;;3.30;1.90;;;;;;;39.96;25.43;100483.23;108019;1288;22011;-69
2023/09/04 10:11:46;;;;;;;5.70;2.20;;;;;;;40.16;24.88;100481.24;107992;1283;21995;-68
2023/09/04 10:14:16;;;;;;;6.60;2.10;;;;;;;40.12;24.47;100483.23;107894;1283;21990;-70
2023/09/04 10:16:53;;;;;;;4.90;1.90;;;;;;;40.00;24.61;100481.63;108051;1288;22929;-69
2023/09/04 10:19:18;;;;;;;2.70;1.90;;;;;;;39.89;24.12;100479.72;107985;1288;23120;-69
2023/09/04 10:21:48;;;;;;;3.00;2.20;;;;;;;39.68;24.10;100481.96;107924;1288;21992;-59
2023/09/04 10:24:13;;;;;;;5.40;2.20;;;;;;;39.58;23.92;100486.77;107941;1288;21972;-60
2023/09/04 10:26:46;;;;;;;4.90;2.00;;;;;;;39.48;23.92;100488.19;107681;1289;21994;-61
2023/09/04 10:29:11;;;;;;;2.20;1.80;;;;;;;39.38;23.80;100490.08;107817;1288;22166;-69
2023/09/04 10:31:38;;;;;;;5.30;1.90;;;;;;;39.37;24.12;100491.67;107699;1276;22038;-71
2023/09/04 10:34:04;;;;;;;4.90;1.70;;;;;;;39.61;24.31;100495.75;108020;1288;24331;-69
2023/09/04 10:36:30;;;;;;;3.80;2.10;;;;;;;39.78;23.52;100487.63;108116;1288;23183;-70
2023/09/04 10:39:00;;;;;;;4.70;2.10;;;;;;;39.81;23.58;100482.46;107691;1289;22016;-60
2023/09/04 10:41:28;;;;;;;6.40;2.40;;;;;;;39.78;23.31;100487.48;107738;1285;21995;-70
2023/09/04 10:43:54;;;;;;;4.40;1.90;;;;;;;39.73;23.68;100488.08;108027;1288;22254;-60
2023/09/04 10:46:20;;;;;;;5.40;2.00;;;;;;;39.85;23.75;100480.05;108062;1287;21994;-60
2023/09/04 10:48:48;;;;;;;3.50;1.80;;;;;;;40.10;23.88;100480.24;107897;1288;22034;-61
2023/09/04 10:51:26;;;;;;;3.30;1.90;;;;;;;40.43;23.42;100470.89;108116;1288;21988;-60
2023/09/04 10:53:51;;;;;;;5.50;1.90;;;;;;;40.62;23.14;100473.07;107997;1289;21987;-59
2023/09/04 10:56:17;;;;;;;4.80;1.90;;;;;;;40.58;22.84;100474.42;107726;1282;21997;-69
2023/09/04 10:59:05;;;;;;;6.90;2.40;;;;;;;40.33;22.18;100483.25;107660;1287;21992;-59
2023/09/04 11:01:36;;;;;;;2.90;2.00;;;;;;;39.94;22.53;100481.51;107736;1289;23629;-68
2023/09/04 11:04:08;;;;;;;6.70;2.30;;;;;;;39.82;22.75;100478.70;107735;1289;21993;-59
2023/09/04 11:06:37;;;;;;;3.70;1.80;;;;;;;40.05;23.13;100477.35;107890;1289;22059;-67
2023/09/04 11:09:04;;;;;;;2.60;1.80;;;;;;;40.19;22.60;100475.27;107904;1288;21987;-68
2023/09/04 11:11:29;;;;;;;5.90;2.20;;;;;;;40.12;22.79;100476.17;107830;1289;23374;-59
2023/09/04 11:14:00;;;;;;;3.00;1.70;;;;;;;40.22;23.04;100474.48;107679;1284;22217;-60